createdAt,value
2023-05-17T00:00:16.294Z,100.00
2023-05-17T00:02:43.061Z,100.00
2023-05-17T00:05:11.681Z,100.00
2023-05-17T00:07:38.260Z,100.00
2023-05-17T00:10:05.472Z,100.00
2023-05-17T00:12:32.171Z,100.00
2023-05-17T00:14:59.175Z,100.00
2023-05-17T00:17:26.171Z,100.00
2023-05-17T00:19:53.010Z,100.00
2023-05-17T00:22:19.661Z,100.00
2023-05-17T00:24:46.314Z,100.00
2023-05-17T00:27:12.956Z,100.00
2023-05-17T00:29:39.564Z,100.00
2023-05-17T00:32:06.546Z,100.00
2023-05-17T00:34:33.372Z,100.00
2023-05-17T00:36:59.965Z,100.00
2023-05-17T00:39:26.633Z,100.00
2023-05-17T00:41:53.526Z,100.00
2023-05-17T00:44:20.778Z,100.00
2023-05-17T00:46:47.478Z,100.00
2023-05-17T00:49:14.171Z,100.00
2023-05-17T00:51:41.012Z,100.00
2023-05-17T00:54:07.706Z,100.00
2023-05-17T00:56:34.449Z,100.00
2023-05-17T00:59:02.193Z,100.00
2023-05-17T01:01:29.565Z,100.00
2023-05-17T01:03:57.659Z,100.00
2023-05-17T01:06:24.502Z,100.00
2023-05-17T01:08:51.302Z,100.00
2023-05-17T01:11:29.384Z,100.00
2023-05-17T01:14:02.487Z,100.00
2023-05-17T01:16:39.415Z,100.00
2023-05-17T01:19:21.192Z,100.00
2023-05-17T01:22:08.656Z,100.00
2023-05-17T01:25:04.960Z,100.00
2023-05-17T01:27:32.828Z,100.00
2023-05-17T01:30:01.749Z,100.00
2023-05-17T01:32:30.239Z,100.00
2023-05-17T01:34:57.048Z,100.00
2023-05-17T01:37:23.645Z,100.00
2023-05-17T01:39:50.357Z,100.00
2023-05-17T01:42:40.237Z,100.00
2023-05-17T01:45:15.926Z,100.00
2023-05-17T01:48:04.124Z,100.00
2023-05-17T01:50:32.781Z,100.00
2023-05-17T01:53:07.712Z,100.00
2023-05-17T01:55:46.373Z,100.00
2023-05-17T01:58:14.040Z,100.00
2023-05-17T02:00:43.935Z,100.00
2023-05-17T02:03:20.599Z,100.00
2023-05-17T02:05:47.659Z,100.00
2023-05-17T02:08:14.546Z,100.00
2023-05-17T02:10:41.349Z,100.00
2023-05-17T02:13:08.143Z,100.00
2023-05-17T02:15:35.020Z,100.00
2023-05-17T02:18:01.711Z,100.00
2023-05-17T02:20:28.346Z,100.00
2023-05-17T02:22:55.008Z,100.00
2023-05-17T02:25:22.032Z,100.00
2023-05-17T02:27:48.669Z,100.00
2023-05-17T02:30:18.081Z,100.00
2023-05-17T02:32:45.327Z,100.00
2023-05-17T02:35:12.193Z,100.00
2023-05-17T02:37:38.835Z,100.00
2023-05-17T02:40:09.953Z,100.00
2023-05-17T02:42:36.839Z,100.00
2023-05-17T02:45:04.771Z,100.00
2023-05-17T02:47:31.692Z,100.00
2023-05-17T02:49:58.354Z,100.00
2023-05-17T02:52:25.317Z,100.00
2023-05-17T02:54:52.352Z,100.00
2023-05-17T02:57:19.512Z,100.00
2023-05-17T02:59:46.403Z,100.00
2023-05-17T03:02:13.218Z,100.00
2023-05-17T03:04:40.070Z,100.00
2023-05-17T03:07:07.386Z,100.00
2023-05-17T03:09:34.570Z,100.00
2023-05-17T03:12:01.544Z,100.00
2023-05-17T03:14:28.261Z,100.00
2023-05-17T03:16:54.988Z,100.00
2023-05-17T03:19:21.646Z,100.00
2023-05-17T03:21:48.349Z,100.00
2023-05-17T03:24:15.089Z,100.00
2023-05-17T03:26:41.659Z,100.00
2023-05-17T03:29:08.499Z,100.00
2023-05-17T03:31:35.313Z,100.00
2023-05-17T03:34:02.097Z,100.00
2023-05-17T03:36:28.970Z,100.00
2023-05-17T03:38:55.856Z,100.00
2023-05-17T03:41:23.101Z,100.00
2023-05-17T03:43:50.212Z,100.00
2023-05-17T03:46:17.273Z,100.00
2023-05-17T03:48:43.872Z,100.00
2023-05-17T03:51:10.591Z,100.00
2023-05-17T03:53:41.298Z,100.00
2023-05-17T03:56:08.056Z,100.00
2023-05-17T03:58:34.746Z,100.00
2023-05-17T04:01:01.738Z,100.00
2023-05-17T04:03:28.529Z,100.00
2023-05-17T04:06:01.557Z,100.00
2023-05-17T04:08:28.351Z,100.00
2023-05-17T04:10:55.081Z,100.00
2023-05-17T04:13:21.649Z,100.00
2023-05-17T04:15:48.288Z,100.00
2023-05-17T04:18:15.122Z,100.00
2023-05-17T04:20:42.378Z,100.00
2023-05-17T04:23:09.051Z,100.00
2023-05-17T04:25:35.646Z,100.00
2023-05-17T04:28:02.237Z,100.00
2023-05-17T04:30:28.828Z,100.00
2023-05-17T04:32:55.813Z,100.00
2023-05-17T04:35:22.499Z,100.00
2023-05-17T04:37:49.247Z,100.00
2023-05-17T04:40:16.009Z,100.00
2023-05-17T04:42:42.567Z,100.00
2023-05-17T04:45:09.676Z,100.00
2023-05-17T04:47:37.268Z,100.00
2023-05-17T04:50:04.793Z,100.00
2023-05-17T04:52:32.491Z,100.00
2023-05-17T04:54:59.110Z,99.19
2023-05-17T04:57:25.835Z,97.50
2023-05-17T04:59:52.445Z,96.33
2023-05-17T05:02:19.205Z,98.22
2023-05-17T05:04:46.096Z,98.42
2023-05-17T05:07:12.886Z,98.06
2023-05-17T05:09:39.504Z,95.93
2023-05-17T05:12:06.508Z,94.28
2023-05-17T05:14:33.239Z,93.68
2023-05-17T05:16:59.888Z,91.38
2023-05-17T05:19:26.571Z,86.37
2023-05-17T05:21:53.456Z,86.58
2023-05-17T05:24:20.146Z,83.49
2023-05-17T05:26:46.931Z,83.16
2023-05-17T05:29:13.995Z,79.49
2023-05-17T05:31:40.612Z,69.18
2023-05-17T05:34:07.578Z,67.72
2023-05-17T05:36:34.717Z,68.29
2023-05-17T05:39:01.550Z,67.53
2023-05-17T05:41:28.290Z,64.52
2023-05-17T05:43:55.074Z,61.87
2023-05-17T05:46:22.156Z,61.93
2023-05-17T05:48:48.916Z,60.78
2023-05-17T05:51:16.000Z,56.41
2023-05-17T05:53:42.753Z,59.04
2023-05-17T05:56:09.781Z,57.76
2023-05-17T05:58:36.919Z,61.47
2023-05-17T06:01:06.013Z,63.65
2023-05-17T06:03:33.088Z,67.42
2023-05-17T06:05:59.890Z,64.59
2023-05-17T06:08:26.913Z,63.63
2023-05-17T06:10:53.985Z,67.73
2023-05-17T06:13:20.666Z,66.67
2023-05-17T06:15:47.407Z,67.47
2023-05-17T06:18:14.155Z,66.73
2023-05-17T06:20:40.905Z,67.99
2023-05-17T06:23:07.612Z,65.68
2023-05-17T06:25:34.418Z,64.00
2023-05-17T06:28:03.163Z,62.10
2023-05-17T06:30:30.705Z,64.42
2023-05-17T06:32:57.836Z,63.36
2023-05-17T06:35:24.506Z,63.02
2023-05-17T06:37:51.593Z,62.85
2023-05-17T06:40:18.248Z,62.95
2023-05-17T06:42:45.161Z,64.53
2023-05-17T06:45:12.870Z,64.38
2023-05-17T06:47:39.712Z,63.23
2023-05-17T06:50:07.504Z,65.37
2023-05-17T06:52:34.765Z,65.49
2023-05-17T06:55:01.391Z,64.63
2023-05-17T06:57:28.047Z,64.73
2023-05-17T06:59:54.729Z,65.63
2023-05-17T07:02:21.588Z,67.93
2023-05-17T07:04:50.768Z,68.26
2023-05-17T07:07:17.959Z,66.09
2023-05-17T07:09:44.657Z,69.05
2023-05-17T07:12:11.376Z,67.24
2023-05-17T07:14:38.008Z,64.51
2023-05-17T07:17:04.893Z,68.85
2023-05-17T07:19:31.645Z,66.53
2023-05-17T07:21:58.700Z,66.93
2023-05-17T07:24:25.392Z,65.71
2023-05-17T07:26:52.602Z,67.59
2023-05-17T07:29:19.533Z,68.87
2023-05-17T07:31:46.160Z,68.80
2023-05-17T07:34:13.955Z,69.65
2023-05-17T07:36:40.877Z,68.66
2023-05-17T07:39:08.824Z,68.08
2023-05-17T07:41:36.182Z,68.65
2023-05-17T07:44:03.587Z,68.45
2023-05-17T07:46:30.764Z,69.47
2023-05-17T07:48:58.818Z,71.24
2023-05-17T07:51:25.797Z,71.74
2023-05-17T07:53:52.531Z,70.08
2023-05-17T07:56:19.187Z,66.24
2023-05-17T07:58:45.939Z,68.33
2023-05-17T08:01:12.625Z,69.65
2023-05-17T08:03:39.720Z,69.34
2023-05-17T08:06:06.600Z,67.61
2023-05-17T08:08:33.243Z,66.65
2023-05-17T08:10:59.820Z,70.54
2023-05-17T08:13:26.690Z,69.08
2023-05-17T08:16:01.186Z,70.24
2023-05-17T08:18:28.474Z,72.04
2023-05-17T08:20:55.776Z,71.55
2023-05-17T08:23:22.512Z,73.71
2023-05-17T08:25:49.188Z,74.82
2023-05-17T08:28:15.864Z,76.56
2023-05-17T08:30:42.484Z,74.52
2023-05-17T08:33:12.297Z,76.16
2023-05-17T08:35:39.084Z,74.94
2023-05-17T08:38:05.803Z,73.12
2023-05-17T08:40:32.703Z,75.84
2023-05-17T08:43:00.037Z,70.14
2023-05-17T08:45:29.425Z,71.75
2023-05-17T08:47:56.522Z,72.53
2023-05-17T08:50:24.041Z,71.14
2023-05-17T08:52:51.385Z,72.75
2023-05-17T08:55:18.341Z,71.19
2023-05-17T08:57:45.230Z,71.59
2023-05-17T09:00:15.732Z,72.94
2023-05-17T09:02:43.134Z,74.02
2023-05-17T09:05:10.875Z,73.18
2023-05-17T09:07:37.780Z,74.93
2023-05-17T09:10:06.007Z,72.42
2023-05-17T09:12:35.064Z,74.31
2023-05-17T09:15:19.667Z,72.17
2023-05-17T09:17:56.979Z,73.93
2023-05-17T09:20:25.808Z,77.83
2023-05-17T09:22:52.672Z,74.67
2023-05-17T09:25:21.101Z,74.85
2023-05-17T09:27:47.896Z,77.47
2023-05-17T09:30:14.693Z,73.76
2023-05-17T09:35:15.743Z,72.89
2023-05-17T09:37:43.322Z,72.48
2023-05-17T09:40:10.767Z,72.79
2023-05-17T09:42:39.215Z,72.60
2023-05-17T09:45:06.605Z,72.88
2023-05-17T09:47:35.966Z,70.87
2023-05-17T09:50:04.932Z,70.41
2023-05-17T09:52:32.209Z,70.28
2023-05-17T09:55:00.842Z,69.99
2023-05-17T09:57:29.194Z,69.55
2023-05-17T09:59:57.548Z,69.06
2023-05-17T10:02:28.911Z,69.11
2023-05-17T10:04:58.347Z,70.31
2023-05-17T10:07:26.690Z,73.14
2023-05-17T10:09:56.063Z,74.49
2023-05-17T10:12:25.053Z,73.69
2023-05-17T10:14:55.889Z,73.25
2023-05-17T10:17:26.718Z,71.94
2023-05-17T10:19:54.770Z,69.33
2023-05-17T10:22:23.791Z,69.70
2023-05-17T10:24:52.254Z,71.42
2023-05-17T10:27:21.680Z,73.20
2023-05-17T10:29:50.738Z,75.56
2023-05-17T10:32:22.990Z,76.05
2023-05-17T10:35:01.385Z,77.25
2023-05-17T10:37:36.833Z,76.33
2023-05-17T10:40:03.992Z,75.32
2023-05-17T10:42:32.294Z,75.56
2023-05-17T10:45:01.515Z,73.38
2023-05-17T10:47:34.617Z,74.89
2023-05-17T10:50:02.114Z,75.17
2023-05-17T10:52:28.777Z,75.75
2023-05-17T10:54:57.187Z,74.77
2023-05-17T10:57:51.072Z,77.10
2023-05-17T11:00:22.276Z,77.51
2023-05-17T11:02:50.971Z,78.02
2023-05-17T11:05:25.839Z,77.10
2023-05-17T11:07:53.058Z,76.02
2023-05-17T11:10:19.886Z,74.49
2023-05-17T11:12:54.312Z,74.60
2023-05-17T11:15:28.238Z,74.15
2023-05-17T11:17:57.685Z,74.45
2023-05-17T11:20:27.555Z,76.27
2023-05-17T11:23:06.078Z,77.83
2023-05-17T11:25:38.179Z,78.24
2023-05-17T11:28:08.985Z,80.16
2023-05-17T11:30:41.467Z,83.42
2023-05-17T11:33:20.478Z,84.88
2023-05-17T11:35:55.629Z,82.95
2023-05-17T11:38:30.580Z,85.03
2023-05-17T11:40:57.970Z,86.46
2023-05-17T11:43:31.038Z,88.44
2023-05-17T11:46:02.345Z,88.03
2023-05-17T11:48:30.432Z,88.27
2023-05-17T11:50:58.040Z,87.54
2023-05-17T11:53:27.652Z,89.46
2023-05-17T11:55:54.331Z,86.14
2023-05-17T11:58:24.997Z,85.25
2023-05-17T12:00:56.921Z,86.95
2023-05-17T12:03:33.808Z,86.45
2023-05-17T12:06:13.235Z,86.98
2023-05-17T12:08:44.462Z,86.67
2023-05-17T12:11:14.877Z,85.51
2023-05-17T12:13:44.235Z,83.89
2023-05-17T12:16:17.906Z,85.28
2023-05-17T12:18:50.970Z,86.38
2023-05-17T12:21:19.209Z,84.45
2023-05-17T12:23:49.622Z,84.32
2023-05-17T12:26:22.614Z,83.74
2023-05-17T12:28:59.957Z,82.73
2023-05-17T12:31:29.033Z,81.45
2023-05-17T12:33:56.406Z,78.82
2023-05-17T12:36:23.603Z,78.35
2023-05-17T12:38:50.755Z,79.18
2023-05-17T12:41:18.276Z,78.74
2023-05-17T12:43:46.652Z,79.64
2023-05-17T12:46:19.069Z,80.29
2023-05-17T12:48:47.114Z,80.59
2023-05-17T12:51:16.146Z,79.36
2023-05-17T12:53:53.076Z,82.79
2023-05-17T12:56:25.092Z,82.66
2023-05-17T12:59:10.427Z,81.45
2023-05-17T13:01:40.138Z,81.27
2023-05-17T13:04:06.879Z,80.51
2023-05-17T13:06:53.498Z,81.79
2023-05-17T13:09:23.921Z,83.80
2023-05-17T13:11:52.461Z,83.45
2023-05-17T13:14:40.015Z,84.51
2023-05-17T13:17:25.476Z,84.82
2023-05-17T13:19:52.544Z,86.39
2023-05-17T13:22:19.443Z,85.17
2023-05-17T13:24:46.150Z,86.06
2023-05-17T13:27:13.286Z,86.23
2023-05-17T13:29:42.158Z,86.02
2023-05-17T13:32:11.760Z,85.90
2023-05-17T13:34:39.057Z,84.71
2023-05-17T13:37:08.667Z,84.91
2023-05-17T13:39:37.272Z,84.03
2023-05-17T13:42:04.558Z,82.69
2023-05-17T13:44:31.700Z,79.49
2023-05-17T13:46:58.759Z,77.79
2023-05-17T13:49:25.956Z,80.29
2023-05-17T13:51:52.679Z,78.20
2023-05-17T13:54:20.827Z,75.99
2023-05-17T13:56:48.830Z,74.17
2023-05-17T13:59:15.630Z,74.88
2023-05-17T14:01:43.436Z,75.68
2023-05-17T14:04:10.236Z,75.26
2023-05-17T14:06:36.904Z,75.44
2023-05-17T14:09:04.152Z,75.42
2023-05-17T14:11:30.852Z,75.59
2023-05-17T14:13:57.558Z,74.90
2023-05-17T14:16:24.268Z,73.07
2023-05-17T14:18:51.134Z,75.54
2023-05-17T14:21:17.997Z,75.91
2023-05-17T14:23:44.750Z,76.31
2023-05-17T14:26:11.981Z,76.23
2023-05-17T14:28:39.102Z,75.45
2023-05-17T14:31:09.566Z,75.54
2023-05-17T14:33:36.652Z,75.89
2023-05-17T14:36:04.165Z,75.91
2023-05-17T14:38:31.237Z,77.51
2023-05-17T14:40:59.159Z,76.95
2023-05-17T14:43:26.428Z,78.79
2023-05-17T14:45:53.497Z,80.01
2023-05-17T14:48:20.389Z,79.90
2023-05-17T14:50:47.221Z,79.80
2023-05-17T14:53:13.921Z,78.76
2023-05-17T14:55:40.676Z,80.53
2023-05-17T14:58:07.548Z,82.84
2023-05-17T15:00:35.304Z,84.30
2023-05-17T15:03:02.108Z,86.94
2023-05-17T15:05:29.303Z,89.09
2023-05-17T15:07:56.658Z,93.81
2023-05-17T15:10:24.280Z,99.24
2023-05-17T15:12:50.984Z,100.00
2023-05-17T15:15:18.438Z,100.00
2023-05-17T15:17:45.268Z,100.00
2023-05-17T15:20:12.403Z,100.00
2023-05-17T15:22:39.331Z,100.00
2023-05-17T15:25:06.529Z,100.00
2023-05-17T15:27:33.198Z,100.00
2023-05-17T15:29:59.953Z,100.00
2023-05-17T15:32:26.777Z,100.00
2023-05-17T15:34:53.847Z,100.00
2023-05-17T15:37:20.442Z,100.00
2023-05-17T15:39:47.142Z,100.00
2023-05-17T15:42:13.837Z,100.00
2023-05-17T15:44:41.332Z,100.00
2023-05-17T15:47:08.512Z,100.00
2023-05-17T15:49:35.562Z,100.00
2023-05-17T15:52:02.473Z,100.00
2023-05-17T15:54:29.542Z,100.00
2023-05-17T15:56:56.375Z,100.00
2023-05-17T15:59:23.014Z,100.00
2023-05-17T16:01:49.832Z,100.00
2023-05-17T16:04:16.911Z,100.00
2023-05-17T16:06:43.844Z,100.00
2023-05-17T16:09:11.953Z,100.00
2023-05-17T16:11:38.786Z,100.00
2023-05-17T16:14:05.956Z,100.00
2023-05-17T16:16:32.700Z,100.00
2023-05-17T16:18:59.395Z,100.00
2023-05-17T16:21:26.216Z,100.00
2023-05-17T16:23:52.979Z,100.00
2023-05-17T16:26:19.796Z,100.00
2023-05-17T16:28:46.636Z,100.00
2023-05-17T16:31:13.404Z,100.00
2023-05-17T16:33:41.482Z,100.00
2023-05-17T16:36:09.097Z,100.00
2023-05-17T16:38:35.800Z,100.00
2023-05-17T16:41:03.422Z,100.00
2023-05-17T16:43:31.462Z,100.00
2023-05-17T16:45:58.975Z,100.00
2023-05-17T16:48:25.870Z,100.00
2023-05-17T16:50:53.006Z,100.00
2023-05-17T16:53:19.736Z,100.00
2023-05-17T16:55:46.458Z,100.00
2023-05-17T16:58:13.282Z,100.00
2023-05-17T17:00:40.097Z,100.00
2023-05-17T17:03:09.267Z,100.00
2023-05-17T17:05:36.633Z,100.00
2023-05-17T17:08:03.443Z,100.00
2023-05-17T17:10:30.524Z,100.00
2023-05-17T17:12:57.523Z,100.00
2023-05-17T17:15:25.148Z,100.00
2023-05-17T17:17:52.742Z,100.00
2023-05-17T17:20:19.920Z,100.00
2023-05-17T17:22:46.947Z,100.00
2023-05-17T17:25:13.705Z,100.00
2023-05-17T17:27:40.738Z,100.00
2023-05-17T17:30:08.231Z,100.00
2023-05-17T17:32:35.056Z,100.00
2023-05-17T17:35:01.956Z,100.00
2023-05-17T17:37:28.709Z,100.00
2023-05-17T17:39:55.622Z,100.00
2023-05-17T17:42:22.327Z,100.00
2023-05-17T17:44:49.757Z,100.00
2023-05-17T17:47:16.823Z,100.00
2023-05-17T17:49:43.535Z,100.00
2023-05-17T17:52:10.145Z,100.00
2023-05-17T17:54:36.921Z,100.00
2023-05-17T17:57:03.926Z,100.00
2023-05-17T17:59:30.847Z,100.00
2023-05-17T18:01:57.555Z,100.00
2023-05-17T18:04:24.249Z,100.00
2023-05-17T18:06:50.998Z,100.00
2023-05-17T18:09:17.600Z,100.00
2023-05-17T18:11:44.318Z,100.00
2023-05-17T18:14:10.960Z,100.00
2023-05-17T18:16:37.884Z,100.00
2023-05-17T18:19:04.638Z,100.00
2023-05-17T18:21:31.457Z,100.00
2023-05-17T18:23:58.158Z,100.00
2023-05-17T18:26:24.805Z,100.00
2023-05-17T18:28:51.414Z,100.00
2023-05-17T18:31:18.931Z,100.00
2023-05-17T18:33:45.706Z,100.00
2023-05-17T18:36:12.607Z,100.00
2023-05-17T18:38:39.500Z,100.00
2023-05-17T18:41:06.751Z,100.00
2023-05-17T18:43:33.548Z,100.00
2023-05-17T18:46:00.186Z,100.00
2023-05-17T18:48:27.989Z,100.00
2023-05-17T18:50:55.078Z,100.00
2023-05-17T18:53:21.865Z,100.00
2023-05-17T18:55:48.613Z,100.00
2023-05-17T18:58:15.248Z,100.00
2023-05-17T19:00:41.916Z,100.00
2023-05-17T19:03:08.682Z,100.00
2023-05-17T19:05:35.530Z,100.00
2023-05-17T19:08:02.152Z,100.00
2023-05-17T19:10:29.098Z,100.00
2023-05-17T19:12:55.984Z,100.00
2023-05-17T19:15:22.857Z,100.00
2023-05-17T19:17:49.701Z,100.00
2023-05-17T19:20:16.722Z,100.00
2023-05-17T19:22:43.381Z,100.00
2023-05-17T19:25:10.260Z,100.00
2023-05-17T19:27:36.849Z,100.00
2023-05-17T19:30:04.227Z,100.00
2023-05-17T19:32:33.242Z,100.00
2023-05-17T19:35:01.371Z,100.00
2023-05-17T19:37:28.617Z,100.00
2023-05-17T19:39:55.842Z,100.00
2023-05-17T19:42:22.580Z,100.00
2023-05-17T19:44:49.285Z,100.00
2023-05-17T19:47:16.088Z,100.00
2023-05-17T19:49:43.387Z,100.00
2023-05-17T19:52:10.343Z,100.00
2023-05-17T19:54:36.963Z,100.00
2023-05-17T19:57:03.777Z,100.00
2023-05-17T19:59:30.573Z,100.00
2023-05-17T20:01:57.453Z,100.00
2023-05-17T20:04:24.207Z,100.00
2023-05-17T20:06:51.200Z,100.00
2023-05-17T20:09:17.861Z,100.00
2023-05-17T20:11:44.543Z,100.00
2023-05-17T20:14:12.388Z,100.00
2023-05-17T20:16:39.209Z,100.00
2023-05-17T20:19:06.125Z,100.00
2023-05-17T20:21:33.469Z,100.00
2023-05-17T20:24:05.449Z,100.00
2023-05-17T20:26:36.581Z,100.00
2023-05-17T20:29:05.728Z,100.00
2023-05-17T20:31:32.734Z,100.00
2023-05-17T20:33:59.683Z,100.00
2023-05-17T20:36:26.467Z,100.00
2023-05-17T20:38:53.633Z,100.00
2023-05-17T20:41:20.654Z,100.00
2023-05-17T20:43:51.800Z,100.00
2023-05-17T20:46:18.948Z,100.00
2023-05-17T20:48:48.045Z,100.00
2023-05-17T20:51:16.215Z,100.00
2023-05-17T20:53:43.120Z,100.00
2023-05-17T20:56:10.645Z,100.00
2023-05-17T20:58:37.258Z,100.00
2023-05-17T21:01:03.881Z,100.00
2023-05-17T21:03:34.215Z,100.00
2023-05-17T21:06:01.993Z,100.00
2023-05-17T21:08:29.626Z,100.00
2023-05-17T21:10:56.683Z,100.00
2023-05-17T21:13:25.756Z,100.00
2023-05-17T21:15:55.978Z,100.00
2023-05-17T21:18:23.915Z,100.00
2023-05-17T21:20:51.723Z,100.00
2023-05-17T21:23:19.416Z,100.00
2023-05-17T21:25:46.184Z,100.00
2023-05-17T21:28:12.936Z,100.00
2023-05-17T21:30:39.697Z,100.00
2023-05-17T21:33:06.506Z,100.00
2023-05-17T21:35:33.249Z,100.00
2023-05-17T21:37:59.937Z,100.00
2023-05-17T21:40:26.753Z,100.00
2023-05-17T21:42:53.484Z,100.00
2023-05-17T21:45:20.213Z,100.00
2023-05-17T21:47:47.020Z,100.00
2023-05-17T21:50:13.895Z,100.00
2023-05-17T21:52:40.887Z,100.00
2023-05-17T21:55:08.667Z,100.00
2023-05-17T21:57:36.824Z,100.00
2023-05-17T22:00:08.062Z,100.00
2023-05-17T22:02:36.153Z,100.00
2023-05-17T22:05:02.956Z,100.00
2023-05-17T22:07:29.836Z,100.00
2023-05-17T22:09:56.587Z,100.00
2023-05-17T22:12:25.727Z,100.00
2023-05-17T22:14:56.893Z,100.00
2023-05-17T22:17:35.260Z,100.00
2023-05-17T22:20:11.475Z,100.00
2023-05-17T22:22:38.433Z,100.00
2023-05-17T22:25:05.901Z,100.00
2023-05-17T22:27:32.595Z,100.00
2023-05-17T22:29:59.264Z,100.00
2023-05-17T22:32:26.236Z,100.00
2023-05-17T22:34:53.101Z,100.00
2023-05-17T22:37:22.864Z,100.00
2023-05-17T22:39:49.917Z,100.00
2023-05-17T22:42:16.644Z,100.00
2023-05-17T22:44:43.268Z,100.00
2023-05-17T22:47:14.859Z,100.00
2023-05-17T22:49:42.361Z,100.00
2023-05-17T22:52:11.118Z,100.00
2023-05-17T22:54:39.189Z,100.00
2023-05-17T22:57:06.501Z,100.00
2023-05-17T22:59:33.316Z,100.00
2023-05-17T23:02:00.336Z,100.00
2023-05-17T23:04:27.394Z,100.00
2023-05-17T23:06:55.095Z,100.00
2023-05-17T23:09:22.431Z,100.00
2023-05-17T23:11:50.466Z,100.00
2023-05-17T23:14:17.678Z,100.00
2023-05-17T23:16:44.389Z,100.00
2023-05-17T23:19:11.127Z,100.00
2023-05-17T23:21:39.640Z,100.00
2023-05-17T23:24:08.146Z,100.00
2023-05-17T23:26:35.222Z,100.00
2023-05-17T23:29:03.673Z,100.00
2023-05-17T23:31:30.464Z,100.00
2023-05-17T23:33:57.150Z,100.00
2023-05-17T23:36:23.845Z,100.00
2023-05-17T23:38:50.513Z,100.00
2023-05-17T23:41:18.518Z,100.00
2023-05-17T23:43:46.911Z,100.00
2023-05-17T23:46:19.915Z,100.00
2023-05-17T23:48:53.054Z,100.00
2023-05-17T23:51:20.542Z,100.00
2023-05-17T23:53:49.222Z,100.00
2023-05-17T23:56:17.534Z,100.00
2023-05-17T23:58:44.968Z,100.00
